SPZO

Alejandro Velasco Astete International Airport

Cusco, Peru
TAF SPZO 242300Z 2500/2524 36011KT 9999 FEW036TCU SCT070 TX19/2519Z TN05/2511Z BECMG 2501/2503 VRB01KT FEW040 SCT080 BECMG 2517/2518 27015KT FEW040TCU SCT046 BKN080 TEMPO 2518/2521 36010KT RA FM252400 27005KT 9999 FEW050 SCT100
Issued Valid From Valid To
Sep-24 @ 23:00 UTC
(2 hours ago)
Sep-25 @ 00:00 UTC
(an hour ago)
Sep-26 @ 00:00 UTC
(in 23 hours)
Expired Click to View Sep-25 @ 00:00 to Sep-25 @ 01:00
TAF SPZO 242300Z 2500/2524 36011KT 9999 FEW036TCU SCT070 TX19/2519Z TN05/2511Z
Wind Visibility Clouds
360° at 11 knots 10,000+ meters
  • Few at 3,600' AGL
  • Scattered at 7,000' AGL
Becoming Sep-25 @ 01:00 to Sep-25 @ 17:00
BECMG 2501/2503 VRB01KT FEW040 SCT080
Wind Visibility Clouds
Variable at 1 knots 10,000+ meters
  • Few at 4,000' AGL
  • Scattered at 8,000' AGL
Becoming Sep-25 @ 17:00 to Sep-26 @ 00:00
BECMG 2517/2518 27015KT FEW040TCU SCT046 BKN080
Wind Visibility Clouds
270° at 15 knots 10,000+ meters
  • Few at 4,000' AGL
  • Scattered at 4,600' AGL
  • Broken at 8,000' AGL
Temporary Sep-25 @ 18:00 to Sep-25 @ 21:00
TEMPO 2518/2521 36010KT RA
Wind Conditions
360° at 10 knots
  • Rain
From Sep-26 @ 00:00 to Sep-26 @ 00:00
Wind Visibility Clouds
270° at 5 knots 10,000+ meters
  • Few at 5,000' AGL
  • Scattered at 10,000' AGL
TAF SPZO 242300Z 2500/2524 36011KT 9999 FEW036TCU SCT070 TX19/2519Z TN05/2511Z BECMG 2501/2503 VRB01KT FEW040 SCT080 BECMG 2517/2518 27015KT FEW040TCU SCT046 BKN080 TEMPO 2518/2521 36010KT RA FM252400 27005KT 9999 FEW050 SCT100
Issued Sep-24 @ 23:00 UTC
(2 hours ago)
Valid From Sep-25 @ 00:00 UTC
(an hour ago)
Valid To Sep-26 @ 00:00 UTC
(in 23 hours)
Sep-25 @ 00:00 - Sep-25 @ 01:00
Wind Visibility
360° at 11 knots 10,000+ meters
Clouds
  • Few at 3,600' AGL
  • Scattered at 7,000' AGL
Becoming Sep-25 @ 01:00 - Sep-25 @ 17:00
Wind Visibility
Variable at 1 knots 10,000+ meters
Clouds
  • Few at 4,000' AGL
  • Scattered at 8,000' AGL
Becoming Sep-25 @ 17:00 - Sep-26 @ 00:00
Wind Visibility
270° at 15 knots 10,000+ meters
Clouds
  • Few at 4,000' AGL
  • Scattered at 4,600' AGL
  • Broken at 8,000' AGL
Temporary Sep-25 @ 18:00 - Sep-25 @ 21:00
Wind
360° at 10 knots
Conditions
  • Rain
From Sep-26 @ 00:00 - Sep-26 @ 00:00
Wind Visibility
270° at 5 knots 10,000+ meters
Clouds
  • Few at 5,000' AGL
  • Scattered at 10,000' AGL